createdAt,value
2023-11-15T00:00:19.977Z,96164.59
2023-11-15T00:02:48.310Z,96157.00
2023-11-15T00:05:16.676Z,96163.03
2023-11-15T00:07:45.392Z,96160.97
2023-11-15T00:10:14.991Z,96164.38
2023-11-15T00:12:44.662Z,96159.38
2023-11-15T00:15:15.423Z,96164.91
2023-11-15T00:17:46.866Z,96162.84
2023-11-15T00:20:15.342Z,96167.72
2023-11-15T00:22:43.681Z,96160.44
2023-11-15T00:25:11.882Z,96158.94
2023-11-15T00:27:40.109Z,96152.97
2023-11-15T00:30:12.095Z,96144.34
2023-11-15T00:32:40.800Z,96141.22
2023-11-15T00:35:13.586Z,96148.03
2023-11-15T00:37:43.446Z,96147.00
2023-11-15T00:40:15.002Z,96146.50
2023-11-15T00:42:43.652Z,96155.69
2023-11-15T00:45:13.438Z,96157.56
2023-11-15T00:47:42.246Z,96163.88
2023-11-15T00:50:12.537Z,96163.91
2023-11-15T00:52:40.709Z,96162.06
2023-11-15T00:55:10.177Z,96152.66
2023-11-15T00:57:38.423Z,96153.47
2023-11-15T01:00:23.097Z,96154.00
2023-11-15T01:02:52.387Z,96158.22
2023-11-15T01:05:22.284Z,96162.66
2023-11-15T01:07:50.443Z,96154.03
2023-11-15T01:10:20.068Z,96169.56
2023-11-15T01:12:48.460Z,96164.09
2023-11-15T01:15:20.435Z,96170.94
2023-11-15T01:17:48.688Z,96156.75
2023-11-15T01:20:17.330Z,96158.84
2023-11-15T01:22:46.934Z,96164.34
2023-11-15T01:25:15.525Z,96175.88
2023-11-15T01:27:43.805Z,96174.03
2023-11-15T01:30:12.693Z,96180.34
2023-11-15T01:32:41.482Z,96187.69
2023-11-15T01:35:10.527Z,96179.28
2023-11-15T01:37:38.818Z,96174.59
2023-11-15T01:40:11.415Z,96177.72
2023-11-15T01:42:40.566Z,96177.19
2023-11-15T01:45:09.574Z,96169.84
2023-11-15T01:47:38.439Z,96175.34
2023-11-15T01:50:11.277Z,96188.75
2023-11-15T01:52:40.375Z,96180.91
2023-11-15T01:55:14.735Z,96177.25
2023-11-15T01:57:43.088Z,96186.16
2023-11-15T02:00:12.709Z,96181.69
2023-11-15T02:02:41.742Z,96194.03
2023-11-15T02:05:10.970Z,96198.47
2023-11-15T02:07:40.563Z,96197.69
2023-11-15T02:10:13.888Z,96203.72
2023-11-15T02:12:42.097Z,96206.63
2023-11-15T02:15:11.046Z,96209.75
2023-11-15T02:17:39.338Z,96208.72
2023-11-15T02:20:09.691Z,96196.16
2023-11-15T02:22:46.135Z,96201.94
2023-11-15T02:25:16.560Z,96200.88
2023-11-15T02:27:44.870Z,96206.38
2023-11-15T02:30:13.782Z,96204.56
2023-11-15T02:32:43.710Z,96213.72
2023-11-15T02:35:12.432Z,96221.31
2023-11-15T02:37:40.578Z,96222.38
2023-11-15T02:40:12.165Z,96217.63
2023-11-15T02:42:41.945Z,96225.22
2023-11-15T02:45:11.469Z,96208.72
2023-11-15T02:47:39.871Z,96210.03
2023-11-15T02:50:09.344Z,96217.91
2023-11-15T02:52:38.205Z,96215.81
2023-11-15T02:55:07.031Z,96222.38
2023-11-15T02:57:35.175Z,96208.72
2023-11-15T03:00:06.966Z,96219.22
2023-11-15T03:02:35.174Z,96217.38
2023-11-15T03:05:03.963Z,96212.66
2023-11-15T03:07:32.138Z,96219.72
2023-11-15T03:10:01.111Z,96212.38
2023-11-15T03:12:29.368Z,96216.31
2023-11-15T03:14:57.747Z,96225.50
2023-11-15T03:17:27.530Z,96230.47
2023-11-15T03:19:56.097Z,96232.31
2023-11-15T03:22:24.345Z,96236.50
2023-11-15T03:24:52.541Z,96230.72
2023-11-15T03:27:20.858Z,96232.03
2023-11-15T03:29:49.123Z,96237.53
2023-11-15T03:32:18.485Z,96226.78
2023-11-15T03:34:48.924Z,96232.56
2023-11-15T03:37:17.232Z,96227.06
2023-11-15T03:39:46.609Z,96232.56
2023-11-15T03:42:14.825Z,96243.59
2023-11-15T03:44:42.968Z,96234.91
2023-11-15T03:47:11.100Z,96239.38
2023-11-15T03:49:39.258Z,96247.00
2023-11-15T03:52:09.273Z,96249.34
2023-11-15T03:54:37.526Z,96251.19
2023-11-15T03:57:09.298Z,96249.88
2023-11-15T03:59:37.556Z,96259.03
2023-11-15T04:02:05.872Z,96258.78
2023-11-15T04:04:34.851Z,96244.38
2023-11-15T04:07:04.298Z,96253.81
2023-11-15T04:09:35.513Z,96240.69
2023-11-15T04:12:03.918Z,96248.81
2023-11-15T04:14:32.085Z,96256.69
2023-11-15T04:17:00.280Z,96265.06
2023-11-15T04:19:28.611Z,96264.28
2023-11-15T04:22:08.598Z,96267.44
2023-11-15T04:24:44.342Z,96269.00
2023-11-15T04:27:14.300Z,96260.09
2023-11-15T04:29:42.792Z,96268.47
2023-11-15T04:32:11.140Z,96275.03
2023-11-15T04:34:39.535Z,96265.88
2023-11-15T04:37:07.734Z,96263.50
2023-11-15T04:39:35.809Z,96256.94
2023-11-15T04:42:05.725Z,96256.44
2023-11-15T04:44:33.983Z,96273.19
2023-11-15T04:47:02.298Z,96273.72
2023-11-15T04:49:30.454Z,96283.16
2023-11-15T04:51:58.562Z,96287.34
2023-11-15T04:54:26.782Z,96298.34
2023-11-15T04:56:54.911Z,96305.19
2023-11-15T04:59:24.650Z,96305.19
2023-11-15T05:01:52.870Z,96298.34
2023-11-15T05:06:49.834Z,96298.88
2023-11-15T05:09:22.475Z,96298.34
2023-11-15T05:11:50.960Z,96293.91
2023-11-15T05:14:19.163Z,96283.16
2023-11-15T05:16:48.732Z,96298.88
2023-11-15T05:19:16.858Z,96299.41
2023-11-15T05:21:44.962Z,96302.28
2023-11-15T05:24:13.304Z,96300.47
2023-11-15T05:26:41.494Z,96294.69
2023-11-15T05:29:09.740Z,96307.00
2023-11-15T05:31:37.904Z,96289.44
2023-11-15T05:34:07.615Z,96306.22
2023-11-15T05:36:35.850Z,96300.47
2023-11-15T05:39:04.535Z,96302.03
2023-11-15T05:41:32.915Z,96297.84
2023-11-15T05:44:01.757Z,96315.41
2023-11-15T05:46:29.951Z,96311.47
2023-11-15T05:48:58.095Z,96322.72
2023-11-15T05:51:27.684Z,96320.38
2023-11-15T05:53:55.859Z,96320.38
2023-11-15T05:56:24.560Z,96319.31
2023-11-15T05:58:52.639Z,96325.88
2023-11-15T06:01:21.883Z,96313.56
2023-11-15T06:03:50.221Z,96307.00
2023-11-15T06:06:18.606Z,96313.03
2023-11-15T06:08:48.597Z,96330.34
2023-11-15T06:11:17.594Z,96321.94
2023-11-15T06:13:45.748Z,96310.94
2023-11-15T06:16:13.899Z,96309.88
2023-11-15T06:18:43.627Z,96310.41
2023-11-15T06:21:12.830Z,96309.38
2023-11-15T06:23:41.038Z,96308.84
2023-11-15T06:26:13.122Z,96318.28
2023-11-15T06:28:42.185Z,96309.38
2023-11-15T06:31:10.384Z,96312.50
2023-11-15T06:33:39.760Z,96310.41
2023-11-15T06:36:09.602Z,96318.81
2023-11-15T06:38:37.784Z,96325.63
2023-11-15T06:41:08.706Z,96338.47
2023-11-15T06:43:38.414Z,96343.19
2023-11-15T06:46:06.668Z,96340.81
2023-11-15T06:48:34.903Z,96342.41
2023-11-15T06:51:03.985Z,96353.94
2023-11-15T06:53:32.745Z,96359.75
2023-11-15T06:56:00.926Z,96362.88
2023-11-15T06:58:29.084Z,96365.50
2023-11-15T07:00:58.654Z,96372.06
2023-11-15T07:03:26.980Z,96376.78
2023-11-15T07:05:55.238Z,96383.88
2023-11-15T07:08:23.465Z,96388.56
2023-11-15T07:10:51.698Z,96385.41
2023-11-15T07:13:22.330Z,96390.66
2023-11-15T07:15:51.773Z,96397.47
2023-11-15T07:18:24.917Z,96394.56
2023-11-15T07:20:53.775Z,96400.59
2023-11-15T07:23:22.015Z,96406.91
2023-11-15T07:25:50.315Z,96402.97
2023-11-15T07:28:19.846Z,96396.41
2023-11-15T07:30:48.096Z,96412.19
2023-11-15T07:33:16.421Z,96410.09
2023-11-15T07:35:47.718Z,96421.91
2023-11-15T07:38:16.537Z,96429.47
2023-11-15T07:40:45.112Z,96416.34
2023-11-15T07:43:14.984Z,96425.00
2023-11-15T07:45:43.459Z,96435.22
2023-11-15T07:48:12.374Z,96430.47
2023-11-15T07:50:42.166Z,96437.81
2023-11-15T07:53:11.761Z,96438.59
2023-11-15T07:55:39.878Z,96443.56
2023-11-15T07:58:08.914Z,96444.88
2023-11-15T08:00:38.239Z,96434.09
2023-11-15T08:03:06.585Z,96427.78
2023-11-15T08:05:34.927Z,96428.25
2023-11-15T08:08:03.465Z,96434.56
2023-11-15T08:10:33.873Z,96436.66
2023-11-15T08:13:02.001Z,96448.25
2023-11-15T08:15:30.212Z,96436.94
2023-11-15T08:17:58.446Z,96446.66
2023-11-15T08:20:26.721Z,96452.69
2023-11-15T08:22:54.873Z,96458.25
2023-11-15T08:25:23.184Z,96459.31
2023-11-15T08:27:53.063Z,96459.84
2023-11-15T08:30:22.595Z,96461.72
2023-11-15T08:32:50.921Z,96459.34
2023-11-15T08:35:19.223Z,96467.75
2023-11-15T08:37:47.391Z,96459.34
2023-11-15T08:40:26.134Z,96466.69
2023-11-15T08:42:59.701Z,96480.78
2023-11-15T08:45:28.142Z,96472.88
2023-11-15T08:47:59.055Z,96474.66
2023-11-15T08:50:28.634Z,96476.25
2023-11-15T08:52:57.970Z,96476.75
2023-11-15T08:55:26.153Z,96484.84
2023-11-15T08:57:54.555Z,96498.47
2023-11-15T09:00:25.767Z,96500.06
2023-11-15T09:02:54.133Z,96500.09
2023-11-15T09:05:24.492Z,96508.28
2023-11-15T09:07:52.842Z,96505.97
2023-11-15T09:10:24.171Z,96512.56
2023-11-15T09:12:53.898Z,96510.72
2023-11-15T09:15:25.753Z,96513.88
2023-11-15T09:17:54.815Z,96525.44
2023-11-15T09:20:27.888Z,96522.56
2023-11-15T09:22:56.591Z,96522.28
2023-11-15T09:25:25.563Z,96519.19
2023-11-15T09:27:55.777Z,96522.88
2023-11-15T09:30:26.682Z,96531.22
2023-11-15T09:32:56.197Z,96541.72
2023-11-15T09:35:29.436Z,96539.09
2023-11-15T09:37:59.799Z,96538.06
2023-11-15T09:40:28.971Z,96538.06
2023-11-15T09:43:01.098Z,96540.16
2023-11-15T09:45:33.713Z,96545.16
2023-11-15T09:48:04.146Z,96542.00
2023-11-15T09:50:35.081Z,96550.13
2023-11-15T09:53:06.705Z,96551.72
2023-11-15T09:55:36.210Z,96554.88
2023-11-15T09:58:04.541Z,96541.72
2023-11-15T10:00:34.199Z,96546.19
2023-11-15T10:03:02.999Z,96552.25
2023-11-15T10:05:33.469Z,96550.16
2023-11-15T10:08:13.090Z,96548.88
2023-11-15T10:10:43.272Z,96552.81
2023-11-15T10:13:15.696Z,96545.47
2023-11-15T10:15:46.709Z,96550.72
2023-11-15T10:18:16.952Z,96547.03
2023-11-15T10:20:45.484Z,96549.09
2023-11-15T10:23:14.900Z,96544.91
2023-11-15T10:25:52.431Z,96548.56
2023-11-15T10:28:23.540Z,96546.97
2023-11-15T10:31:04.578Z,96544.91
2023-11-15T10:33:33.608Z,96540.16
2023-11-15T10:36:26.489Z,96553.78
2023-11-15T10:38:56.907Z,96549.88
2023-11-15T10:41:27.159Z,96551.28
2023-11-15T10:43:56.222Z,96543.44
2023-11-15T10:46:30.612Z,96542.03
2023-11-15T10:49:00.461Z,96533.03
2023-11-15T10:51:42.281Z,96516.59
2023-11-15T10:54:12.661Z,96498.78
2023-11-15T10:56:42.523Z,96471.28
2023-11-15T10:59:11.698Z,96476.31
2023-11-15T11:01:43.648Z,96460.09
2023-11-15T11:04:16.845Z,96461.72
2023-11-15T11:06:51.929Z,96465.31
2023-11-15T11:09:24.929Z,96470.66
2023-11-15T11:11:59.165Z,96462.03
2023-11-15T11:14:28.800Z,96459.63
2023-11-15T11:17:00.393Z,96453.63
2023-11-15T11:19:28.696Z,96458.91
2023-11-15T11:22:09.098Z,96448.38
2023-11-15T11:24:40.998Z,96446.56
2023-11-15T11:27:31.812Z,96449.63
2023-11-15T11:30:20.696Z,96436.31
2023-11-15T11:32:52.143Z,96440.69
2023-11-15T11:35:36.121Z,96433.13
2023-11-15T11:38:05.808Z,96441.25
2023-11-15T11:40:40.754Z,96432.31
2023-11-15T11:43:23.194Z,96430.16
2023-11-15T11:45:55.150Z,96429.38
2023-11-15T11:48:27.167Z,96433.91
2023-11-15T11:51:00.909Z,96423.66
2023-11-15T11:53:29.627Z,96419.09
2023-11-15T11:55:58.748Z,96424.94
2023-11-15T11:58:29.999Z,96427.63
2023-11-15T12:01:03.207Z,96416.66
2023-11-15T12:03:33.582Z,96407.81
2023-11-15T12:06:09.756Z,96402.94
2023-11-15T12:08:39.970Z,96407.75
2023-11-15T12:11:09.489Z,96420.38
2023-11-15T12:13:49.682Z,96419.59
2023-11-15T12:16:22.415Z,96422.22
2023-11-15T12:19:10.009Z,96406.63
2023-11-15T12:21:39.907Z,96399.47
2023-11-15T12:24:11.502Z,96408.38
2023-11-15T12:26:47.314Z,96406.13
2023-11-15T12:29:21.161Z,96407.56
2023-11-15T12:31:52.081Z,96408.59
2023-11-15T12:34:23.175Z,96425.53
2023-11-15T12:36:52.770Z,96421.09
2023-11-15T12:39:23.387Z,96423.72
2023-11-15T12:41:54.098Z,96423.47
2023-11-15T12:44:22.799Z,96448.91
2023-11-15T12:46:55.419Z,96449.31
2023-11-15T12:49:29.072Z,96459.53
2023-11-15T12:51:57.923Z,96444.56
2023-11-15T12:54:26.157Z,96448.28
2023-11-15T12:57:05.825Z,96441.91
2023-11-15T12:59:39.320Z,96441.19
2023-11-15T13:02:08.719Z,96449.69
2023-11-15T13:04:48.404Z,96451.81
2023-11-15T13:07:16.949Z,96441.59
2023-11-15T13:09:45.594Z,96435.56
2023-11-15T13:12:25.806Z,96442.44
2023-11-15T13:14:55.507Z,96447.09
2023-11-15T13:17:24.754Z,96446.00
2023-11-15T13:19:56.589Z,96456.38
2023-11-15T13:22:25.307Z,96457.34
2023-11-15T13:24:53.590Z,96452.63
2023-11-15T13:27:22.060Z,96453.25
2023-11-15T13:29:52.106Z,96457.16
2023-11-15T13:32:20.698Z,96452.63
2023-11-15T13:34:52.108Z,96455.59
2023-11-15T13:37:21.958Z,96459.75
2023-11-15T13:39:50.294Z,96470.59
2023-11-15T13:42:18.647Z,96464.56
2023-11-15T13:44:48.726Z,96454.31
2023-11-15T13:47:17.012Z,96449.06
2023-11-15T13:49:48.818Z,96457.09
2023-11-15T13:52:17.503Z,96458.00
2023-11-15T13:54:48.329Z,96460.00
2023-11-15T13:57:18.934Z,96458.72
2023-11-15T13:59:47.335Z,96448.22
2023-11-15T14:02:15.613Z,96441.84
2023-11-15T14:04:43.976Z,96457.19
2023-11-15T14:07:12.648Z,96449.31
2023-11-15T14:09:41.402Z,96450.91
2023-11-15T14:12:12.300Z,96454.13
2023-11-15T14:14:41.385Z,96464.19
2023-11-15T14:17:11.489Z,96452.63
2023-11-15T14:19:41.210Z,96460.28
2023-11-15T14:22:09.524Z,96454.78
2023-11-15T14:24:37.927Z,96471.81
2023-11-15T14:27:06.736Z,96462.78
2023-11-15T14:29:36.977Z,96468.44
2023-11-15T14:32:08.891Z,96469.00
2023-11-15T14:34:37.168Z,96472.72
2023-11-15T14:37:05.882Z,96467.50
2023-11-15T14:39:34.214Z,96468.09
2023-11-15T14:42:04.494Z,96471.88
2023-11-15T14:44:35.398Z,96465.09
2023-11-15T14:47:04.317Z,96466.25
2023-11-15T14:49:33.247Z,96463.16
2023-11-15T14:52:09.139Z,96465.88
2023-11-15T14:54:41.899Z,96463.88
2023-11-15T14:57:12.008Z,96461.88
2023-11-15T14:59:47.903Z,96457.81
2023-11-15T15:02:18.744Z,96476.09
2023-11-15T15:04:49.320Z,96480.72
2023-11-15T15:07:20.101Z,96492.94
2023-11-15T15:09:48.420Z,96497.50
2023-11-15T15:12:16.729Z,96499.97
2023-11-15T15:14:46.551Z,96502.75
2023-11-15T15:17:23.727Z,96508.69
2023-11-15T15:19:54.870Z,96514.63
2023-11-15T15:22:25.102Z,96523.34
2023-11-15T15:24:53.283Z,96523.13
2023-11-15T15:27:22.794Z,96530.50
2023-11-15T15:29:52.463Z,96516.34
2023-11-15T15:32:20.653Z,96517.47
2023-11-15T15:34:48.762Z,96518.59
2023-11-15T15:37:16.979Z,96530.25
2023-11-15T15:39:45.119Z,96532.94
2023-11-15T15:42:13.431Z,96544.28
2023-11-15T15:44:41.943Z,96551.97
2023-11-15T15:47:11.550Z,96557.25
2023-11-15T15:49:46.251Z,96554.41
2023-11-15T15:52:14.667Z,96553.38
2023-11-15T15:54:43.859Z,96560.22
2023-11-15T15:57:12.454Z,96563.13
2023-11-15T15:59:41.777Z,96557.13
2023-11-15T16:02:11.476Z,96559.50
2023-11-15T16:04:42.629Z,96560.81
2023-11-15T16:07:11.400Z,96563.97
2023-11-15T16:09:42.693Z,96575.28
2023-11-15T16:12:11.587Z,96579.75
2023-11-15T16:14:40.197Z,96589.50
2023-11-15T16:17:09.256Z,96591.63
2023-11-15T16:19:39.303Z,96597.97
2023-11-15T16:22:08.061Z,96598.50
2023-11-15T16:24:36.630Z,96597.44
2023-11-15T16:27:05.607Z,96612.69
2023-11-15T16:29:34.548Z,96607.94
2023-11-15T16:32:03.368Z,96610.84
2023-11-15T16:34:31.889Z,96615.84
2023-11-15T16:37:02.533Z,96613.47
2023-11-15T16:39:30.981Z,96611.09
2023-11-15T16:42:01.287Z,96630.81
2023-11-15T16:44:34.637Z,96635.81
2023-11-15T16:47:03.274Z,96633.44
2023-11-15T16:49:31.678Z,96636.31
2023-11-15T16:52:02.554Z,96639.47
2023-11-15T16:54:32.827Z,96647.91
2023-11-15T16:57:03.665Z,96653.69
2023-11-15T16:59:32.223Z,96645.81
2023-11-15T17:02:00.936Z,96655.78
2023-11-15T17:04:29.995Z,96656.56
2023-11-15T17:06:59.764Z,96672.59
2023-11-15T17:09:30.303Z,96677.84
2023-11-15T17:11:58.561Z,96679.94
2023-11-15T17:14:27.133Z,96682.56
2023-11-15T17:16:55.369Z,96681.50
2023-11-15T17:19:23.605Z,96674.91
2023-11-15T17:24:21.359Z,96681.72
2023-11-15T17:26:51.039Z,96688.03
2023-11-15T17:29:19.288Z,96688.53
2023-11-15T17:31:47.540Z,96678.81
2023-11-15T17:34:16.449Z,96689.06
2023-11-15T17:36:46.066Z,96689.56
2023-11-15T17:39:16.089Z,96688.19
2023-11-15T17:41:44.971Z,96686.06
2023-11-15T17:44:16.435Z,96685.03
2023-11-15T17:46:44.728Z,96683.94
2023-11-15T17:49:13.977Z,96685.53
2023-11-15T17:51:45.334Z,96687.09
2023-11-15T17:54:15.769Z,96688.41
2023-11-15T17:56:44.200Z,96680.81
2023-11-15T17:59:12.600Z,96674.50
2023-11-15T18:01:43.285Z,96675.00
2023-11-15T18:04:16.153Z,96676.56
2023-11-15T18:06:45.098Z,96679.66
2023-11-15T18:09:13.543Z,96683.84
2023-11-15T18:11:42.085Z,96681.44
2023-11-15T18:14:10.341Z,96674.81
2023-11-15T18:16:38.587Z,96682.09
2023-11-15T18:19:09.999Z,96686.78
2023-11-15T18:21:38.790Z,96682.03
2023-11-15T18:24:09.358Z,96678.88
2023-11-15T18:26:38.299Z,96668.91
2023-11-15T18:29:07.501Z,96677.81
2023-11-15T18:31:35.775Z,96672.56
2023-11-15T18:34:04.963Z,96676.22
2023-11-15T18:36:35.350Z,96672.53
2023-11-15T18:39:04.930Z,96669.38
2023-11-15T18:41:33.327Z,96679.31
2023-11-15T18:44:02.280Z,96678.25
2023-11-15T18:46:30.873Z,96671.91
2023-11-15T18:48:59.804Z,96674.03
2023-11-15T18:51:31.727Z,96675.63
2023-11-15T18:54:02.757Z,96685.06
2023-11-15T18:56:32.088Z,96671.91
2023-11-15T18:59:01.588Z,96678.44
2023-11-15T19:01:30.103Z,96675.44
2023-11-15T19:03:58.783Z,96678.53
2023-11-15T19:06:29.129Z,96670.34
2023-11-15T19:08:59.112Z,96668.47
2023-11-15T19:11:32.199Z,96660.81
2023-11-15T19:14:01.512Z,96661.31
2023-11-15T19:16:30.206Z,96663.69
2023-11-15T19:18:58.464Z,96662.63
2023-11-15T19:21:26.746Z,96664.22
2023-11-15T19:23:55.728Z,96664.72
2023-11-15T19:26:25.922Z,96674.88
2023-11-15T19:28:55.600Z,96669.59
2023-11-15T19:31:25.148Z,96668.81
2023-11-15T19:33:55.060Z,96664.13
2023-11-15T19:36:23.370Z,96663.38
2023-11-15T19:38:51.659Z,96667.91
2023-11-15T19:41:20.615Z,96663.81
2023-11-15T19:43:48.823Z,96671.22
2023-11-15T19:46:21.432Z,96668.63
2023-11-15T19:48:49.656Z,96663.44
2023-11-15T19:51:36.895Z,96653.22
2023-11-15T19:54:08.803Z,96655.78
2023-11-15T19:56:37.380Z,96648.41
2023-11-15T19:59:05.673Z,96636.53
2023-11-15T20:01:35.305Z,96640.13
2023-11-15T20:04:06.149Z,96638.75
2023-11-15T20:06:34.495Z,96635.81
2023-11-15T20:09:02.871Z,96629.00
2023-11-15T20:11:31.176Z,96624.81
2023-11-15T20:13:59.428Z,96619.03
2023-11-15T20:16:28.755Z,96624.81
2023-11-15T20:18:58.664Z,96624.81
2023-11-15T20:21:26.886Z,96617.50
2023-11-15T20:23:55.542Z,96624.88
2023-11-15T20:26:23.841Z,96632.41
2023-11-15T20:28:53.226Z,96625.81
2023-11-15T20:31:22.518Z,96624.72
2023-11-15T20:33:51.024Z,96628.38
2023-11-15T20:36:21.340Z,96625.22
2023-11-15T20:38:49.661Z,96621.50
2023-11-15T20:41:17.919Z,96609.41
2023-11-15T20:43:46.593Z,96610.44
2023-11-15T20:46:17.985Z,96609.09
2023-11-15T20:48:48.696Z,96596.81
2023-11-15T20:51:17.212Z,96606.50
2023-11-15T20:53:47.014Z,96597.81
2023-11-15T20:56:15.168Z,96591.19
2023-11-15T20:58:43.432Z,96599.25
2023-11-15T21:01:11.632Z,96584.84
2023-11-15T21:03:40.078Z,96588.19
2023-11-15T21:06:10.354Z,96582.97
2023-11-15T21:08:39.492Z,96577.25
2023-11-15T21:11:09.906Z,96569.78
2023-11-15T21:13:39.010Z,96561.19
2023-11-15T21:16:08.493Z,96554.41
2023-11-15T21:18:37.186Z,96550.81
2023-11-15T21:21:06.165Z,96548.22
2023-11-15T21:23:36.384Z,96555.09
2023-11-15T21:26:07.173Z,96548.88
2023-11-15T21:28:38.330Z,96554.63
2023-11-15T21:31:07.683Z,96542.47
2023-11-15T21:33:36.079Z,96537.19
2023-11-15T21:36:05.196Z,96531.97
2023-11-15T21:38:33.496Z,96520.41
2023-11-15T21:41:02.794Z,96520.38
2023-11-15T21:43:31.046Z,96521.41
2023-11-15T21:46:00.651Z,96516.19
2023-11-15T21:48:29.613Z,96512.47
2023-11-15T21:50:57.960Z,96504.63
2023-11-15T21:53:26.195Z,96506.63
2023-11-15T21:55:54.458Z,96514.31
2023-11-15T21:58:22.687Z,96509.25
2023-11-15T22:00:50.972Z,96500.28
2023-11-15T22:03:20.657Z,96491.78
2023-11-15T22:05:49.084Z,96487.78
2023-11-15T22:08:17.304Z,96486.47
2023-11-15T22:10:45.506Z,96482.72
2023-11-15T22:13:13.833Z,96486.53
2023-11-15T22:15:42.178Z,96492.75
2023-11-15T22:18:10.564Z,96482.75
2023-11-15T22:20:40.235Z,96483.97
2023-11-15T22:23:08.706Z,96493.88
2023-11-15T22:25:36.912Z,96493.34
2023-11-15T22:28:05.049Z,96496.44
2023-11-15T22:30:33.383Z,96497.97
2023-11-15T22:33:01.597Z,96497.97
2023-11-15T22:35:30.793Z,96504.75
2023-11-15T22:38:00.302Z,96506.63
2023-11-15T22:40:28.356Z,96515.31
2023-11-15T22:43:04.610Z,96508.66
2023-11-15T22:45:33.344Z,96519.19
2023-11-15T22:48:02.030Z,96520.75
2023-11-15T22:50:30.286Z,96514.44
2023-11-15T22:52:59.936Z,96523.00
2023-11-15T22:55:28.178Z,96513.34
2023-11-15T22:57:56.514Z,96520.16
2023-11-15T23:00:34.313Z,96528.06
2023-11-15T23:03:10.776Z,96528.66
2023-11-15T23:05:41.383Z,96531.56
2023-11-15T23:08:11.944Z,96523.47
2023-11-15T23:10:40.993Z,96527.69
2023-11-15T23:13:09.214Z,96532.41
2023-11-15T23:15:37.997Z,96524.81
2023-11-15T23:18:06.871Z,96531.94
2023-11-15T23:20:36.996Z,96534.59
2023-11-15T23:23:05.739Z,96540.41
2023-11-15T23:25:35.419Z,96542.31
2023-11-15T23:28:05.490Z,96554.34
2023-11-15T23:30:36.449Z,96546.25
2023-11-15T23:33:04.994Z,96548.91
2023-11-15T23:35:34.193Z,96551.28
2023-11-15T23:38:02.760Z,96547.63
2023-11-15T23:40:31.472Z,96548.13
2023-11-15T23:43:01.184Z,96553.00
2023-11-15T23:45:31.698Z,96546.63
2023-11-15T23:48:01.967Z,96554.66
2023-11-15T23:50:30.333Z,96554.91
2023-11-15T23:52:58.573Z,96551.25
2023-11-15T23:55:26.831Z,96554.72
2023-11-15T23:57:55.597Z,96551.38
